Time;durP1;ratioP1;P1;durP2;ratioP2;P2;SDS_P1;SDS_P2;PMS_P1;PMS_P2;Temp;Humidity;BMP_temperature;BMP_pressure;BME280_temperature;BME280_humidity;BME280_pressure;Samples;Min_cycle;Max_cycle;Signal;HPM_P1;HPM_P2
2023/04/18 00:02:05;;;;;;;88.00;83.05;;;5.50;99.90;;;;;;5069972;28;20051;-70
2023/04/18 00:04:32;;;;;;;95.00;89.97;;;5.70;99.90;;;;;;5088827;28;20047;-70
2023/04/18 00:06:58;;;;;;;89.95;84.97;;;5.70;99.90;;;;;;5088427;28;20096;-70
2023/04/18 00:09:24;;;;;;;95.10;90.10;;;5.80;99.90;;;;;;5072391;28;20048;-70
2023/04/18 00:11:50;;;;;;;91.20;86.40;;;6.00;99.90;;;;;;5092170;27;20031;-70
2023/04/18 00:14:17;;;;;;;86.55;82.05;;;6.30;99.90;;;;;;5072710;28;20471;-70
2023/04/18 00:16:43;;;;;;;75.82;71.43;;;6.50;99.90;;;;;;5071635;28;20046;-71
2023/04/18 00:19:08;;;;;;;78.35;74.03;;;6.70;99.90;;;;;;5089296;28;20047;-70
2023/04/18 00:21:36;;;;;;;77.03;72.57;;;6.90;99.90;;;;;;5088892;27;20099;-70
2023/04/18 00:24:01;;;;;;;59.28;55.58;;;7.00;99.90;;;;;;5090809;28;20047;-70
2023/04/18 00:26:27;;;;;;;54.03;50.58;;;7.10;99.90;;;;;;5102021;27;20104;-70
2023/04/18 00:28:52;;;;;;;51.60;48.42;;;7.10;99.90;;;;;;5087681;28;20056;-70
2023/04/18 00:31:18;;;;;;;46.55;43.40;;;7.10;99.90;;;;;;5071806;28;20035;-70
2023/04/18 00:33:44;;;;;;;48.00;44.80;;;7.00;99.90;;;;;;5089751;28;20036;-70
2023/04/18 00:36:09;;;;;;;46.35;43.15;;;7.00;99.90;;;;;;5086563;28;20031;-70
2023/04/18 00:38:35;;;;;;;43.55;40.63;;;6.90;99.90;;;;;;5090375;27;20122;-70
2023/04/18 00:41:01;;;;;;;44.33;41.22;;;6.90;99.90;;;;;;5090646;27;20035;-70
2023/04/18 00:43:27;;;;;;;89.78;85.03;;;6.90;99.90;;;;;;5074851;28;20481;-70
2023/04/18 00:45:52;;;;;;;51.58;48.70;;;6.90;99.90;;;;;;5090057;28;20524;-70
2023/04/18 00:48:19;;;;;;;43.25;40.17;;;6.90;99.90;;;;;;5069266;28;20545;-70
2023/04/18 00:50:45;;;;;;;43.60;40.50;;;6.90;99.90;;;;;;5088781;28;20186;-70
2023/04/18 00:53:12;;;;;;;44.03;40.60;;;6.90;99.90;;;;;;5089701;28;20118;-70
2023/04/18 00:55:37;;;;;;;50.63;47.55;;;6.90;99.90;;;;;;5072124;28;20039;-70
2023/04/18 00:58:03;;;;;;;43.55;40.65;;;6.90;99.90;;;;;;5074497;27;20049;-70
2023/04/18 01:00:29;;;;;;;50.33;47.22;;;6.80;99.90;;;;;;5091756;28;20047;-70
2023/04/18 01:02:55;;;;;;;49.88;46.65;;;6.80;99.90;;;;;;5090044;27;20036;-70
2023/04/18 01:05:23;;;;;;;49.63;46.28;;;6.80;99.90;;;;;;5073475;28;20128;-70
2023/04/18 01:07:49;;;;;;;50.58;47.30;;;6.70;99.90;;;;;;5085471;27;20048;-70
2023/04/18 01:10:15;;;;;;;56.15;52.33;;;6.60;99.90;;;;;;5072002;28;20034;-70
2023/04/18 01:12:40;;;;;;;60.20;56.65;;;6.60;99.90;;;;;;5087992;28;20414;-70
2023/04/18 01:15:07;;;;;;;55.08;51.67;;;6.60;99.90;;;;;;5090767;28;20050;-70
2023/04/18 01:17:35;;;;;;;56.90;53.67;;;6.70;99.90;;;;;;5071649;27;20039;-70
2023/04/18 01:20:03;;;;;;;51.92;48.60;;;6.70;99.90;;;;;;5102788;27;20035;-70
2023/04/18 01:22:30;;;;;;;48.67;45.42;;;6.70;99.90;;;;;;5073616;27;20104;-70
2023/04/18 01:24:56;;;;;;;53.20;49.67;;;6.70;99.90;;;;;;5089974;27;20218;-70
2023/04/18 01:27:22;;;;;;;46.58;43.45;;;6.60;99.90;;;;;;5091645;28;20050;-70
2023/04/18 01:29:47;;;;;;;50.45;47.20;;;6.60;99.90;;;;;;5070373;28;20161;-70
2023/04/18 01:32:13;;;;;;;62.38;58.88;;;6.70;99.90;;;;;;5087679;27;20084;-70
2023/04/18 01:34:40;;;;;;;60.38;56.83;;;6.70;99.90;;;;;;5086737;28;20027;-70
2023/04/18 01:37:05;;;;;;;53.72;50.38;;;6.70;99.90;;;;;;5102432;28;20028;-70
2023/04/18 01:39:31;;;;;;;55.67;52.38;;;6.70;99.90;;;;;;5088344;28;20401;-70
2023/04/18 01:41:56;;;;;;;51.83;48.40;;;6.70;99.90;;;;;;5089840;28;20545;-70
2023/04/18 01:44:22;;;;;;;55.88;52.00;;;6.70;99.90;;;;;;5106507;28;20075;-70
2023/04/18 01:46:48;;;;;;;56.15;53.00;;;6.60;99.90;;;;;;5072423;28;20392;-70
2023/04/18 01:49:13;;;;;;;57.92;54.30;;;6.60;99.90;;;;;;5086604;27;20398;-70
2023/04/18 01:51:39;;;;;;;55.28;51.47;;;6.50;99.90;;;;;;5071080;28;20088;-70
2023/04/18 01:54:05;;;;;;;55.28;51.72;;;6.50;99.90;;;;;;5070596;28;20031;-70
2023/04/18 01:56:30;;;;;;;54.28;50.78;;;6.50;99.90;;;;;;5088295;28;20036;-70
2023/04/18 01:58:56;;;;;;;55.55;51.88;;;6.50;99.90;;;;;;5088620;28;20411;-70
2023/04/18 02:01:22;;;;;;;64.72;60.92;;;6.60;99.90;;;;;;5084083;28;20131;-70
2023/04/18 02:03:47;;;;;;;63.20;59.53;;;6.50;99.90;;;;;;5103293;27;20478;-70
2023/04/18 02:06:13;;;;;;;53.95;50.67;;;6.50;99.90;;;;;;5072298;28;20043;-70
2023/04/18 02:08:39;;;;;;;55.35;52.15;;;6.50;99.90;;;;;;5087372;28;20571;-70
2023/04/18 02:11:04;;;;;;;58.35;55.05;;;6.50;99.90;;;;;;5084027;28;21049;-70
2023/04/18 02:13:30;;;;;;;57.90;54.65;;;6.50;99.90;;;;;;5071062;28;20039;-70
2023/04/18 02:15:56;;;;;;;54.70;51.50;;;6.50;99.90;;;;;;5086937;28;20095;-70
2023/04/18 02:18:23;;;;;;;53.85;50.45;;;6.50;99.90;;;;;;5087798;28;20123;-70
2023/04/18 02:20:50;;;;;;;54.72;51.30;;;6.40;99.90;;;;;;5084529;28;20116;-70
2023/04/18 02:23:16;;;;;;;54.55;51.42;;;6.40;99.90;;;;;;5087999;28;20096;-70
2023/04/18 02:25:41;;;;;;;56.15;52.80;;;6.40;99.90;;;;;;5086676;28;20398;-70
2023/04/18 02:28:07;;;;;;;55.63;52.22;;;6.40;99.90;;;;;;5084341;28;20043;-70
2023/04/18 02:30:33;;;;;;;59.72;56.20;;;6.40;99.90;;;;;;5103192;28;20135;-70
2023/04/18 02:32:58;;;;;;;59.92;56.33;;;6.30;99.90;;;;;;5072143;28;20050;-70
2023/04/18 02:35:26;;;;;;;60.28;56.83;;;6.40;99.90;;;;;;5108134;28;20031;-70
2023/04/18 02:37:51;;;;;;;53.53;50.40;;;6.40;99.90;;;;;;5072691;28;20043;-70
2023/04/18 02:40:18;;;;;;;51.63;48.47;;;6.50;99.90;;;;;;5087473;28;20047;-70
2023/04/18 02:42:43;;;;;;;56.05;52.90;;;6.50;99.90;;;;;;5117771;28;20043;-70
2023/04/18 02:45:10;;;;;;;49.15;46.03;;;6.60;99.90;;;;;;5091577;28;20482;-70
2023/04/18 02:47:37;;;;;;;44.47;41.65;;;6.80;99.90;;;;;;5084263;28;20414;-70
2023/04/18 02:50:03;;;;;;;45.45;42.75;;;6.80;99.90;;;;;;5053010;27;20039;-71
2023/04/18 02:52:29;;;;;;;42.38;39.83;;;6.90;99.90;;;;;;5087996;28;20070;-70
2023/04/18 02:54:55;;;;;;;42.58;39.95;;;7.00;99.90;;;;;;5073957;28;20042;-70
2023/04/18 02:57:20;;;;;;;44.45;41.90;;;7.00;99.90;;;;;;5132474;27;20043;-70
2023/04/18 02:59:46;;;;;;;44.30;41.72;;;7.10;99.90;;;;;;5094337;28;20043;-70
2023/04/18 03:02:12;;;;;;;36.33;33.80;;;7.10;99.90;;;;;;5073836;27;20032;-71
2023/04/18 03:04:37;;;;;;;38.47;36.00;;;7.20;99.90;;;;;;5088102;28;20595;-70
2023/04/18 03:07:03;;;;;;;38.00;35.75;;;7.20;99.90;;;;;;5089839;27;20055;-70
2023/04/18 03:09:28;;;;;;;37.58;35.35;;;7.20;99.90;;;;;;5093132;27;20035;-70
2023/04/18 03:11:54;;;;;;;41.25;38.75;;;7.20;99.90;;;;;;5091875;28;20067;-70
2023/04/18 03:14:20;;;;;;;36.20;34.00;;;7.20;99.90;;;;;;5092314;27;20085;-70
2023/04/18 03:16:45;;;;;;;37.85;35.65;;;7.20;99.90;;;;;;5088030;28;20079;-70
2023/04/18 03:19:11;;;;;;;34.03;31.63;;;7.10;99.90;;;;;;5090751;28;20039;-70
2023/04/18 03:21:36;;;;;;;34.40;32.20;;;7.10;99.90;;;;;;5089679;28;20096;-70
2023/04/18 03:24:02;;;;;;;33.88;31.48;;;7.10;99.90;;;;;;5091267;28;20521;-70
2023/04/18 03:26:28;;;;;;;38.03;35.63;;;7.10;99.90;;;;;;5112322;27;20108;-70
2023/04/18 03:28:54;;;;;;;33.33;31.13;;;7.10;99.90;;;;;;5088826;28;20055;-70
2023/04/18 03:31:19;;;;;;;36.38;34.10;;;7.10;99.90;;;;;;5074207;28;20055;-71
2023/04/18 03:33:45;;;;;;;52.88;50.38;;;7.10;99.90;;;;;;5090652;28;20032;-71
2023/04/18 03:36:17;;;;;;;35.05;32.53;;;7.10;99.90;;;;;;5092295;28;20047;-70
2023/04/18 03:38:43;;;;;;;35.30;33.00;;;7.10;99.90;;;;;;5086330;28;20039;-70
2023/04/18 03:41:09;;;;;;;35.70;33.42;;;7.10;99.90;;;;;;5108116;27;20042;-71
2023/04/18 03:43:34;;;;;;;45.97;43.38;;;7.00;99.90;;;;;;5086914;28;20035;-70
2023/04/18 03:46:01;;;;;;;34.45;32.17;;;7.10;99.90;;;;;;5073328;28;20043;-70
2023/04/18 03:48:27;;;;;;;45.50;43.10;;;7.10;99.90;;;;;;5089315;28;20158;-70
2023/04/18 03:50:53;;;;;;;35.42;33.15;;;7.10;99.90;;;;;;5089133;28;20036;-70
2023/04/18 03:53:19;;;;;;;32.60;30.50;;;7.10;99.90;;;;;;5092167;28;20440;-70
2023/04/18 03:55:44;;;;;;;35.83;33.55;;;7.10;99.90;;;;;;5099847;28;20054;-70
2023/04/18 03:58:10;;;;;;;36.47;34.17;;;7.10;99.90;;;;;;5089766;27;20039;-70
2023/04/18 04:00:36;;;;;;;35.95;33.35;;;7.00;99.90;;;;;;5091863;28;20062;-70
2023/04/18 04:03:01;;;;;;;36.78;34.20;;;7.00;99.90;;;;;;5072072;28;20081;-70
2023/04/18 04:05:27;;;;;;;42.13;39.33;;;7.00;99.90;;;;;;5087997;28;20051;-70
2023/04/18 04:07:53;;;;;;;34.20;32.00;;;7.00;99.90;;;;;;5088808;27;20048;-71
2023/04/18 04:10:19;;;;;;;39.88;37.33;;;7.00;99.90;;;;;;5086663;27;20035;-71
2023/04/18 04:12:45;;;;;;;36.10;33.75;;;7.00;99.90;;;;;;5073691;28;20402;-71
2023/04/18 04:15:11;;;;;;;35.65;33.35;;;7.00;99.90;;;;;;5073960;28;20040;-71
2023/04/18 04:17:37;;;;;;;34.85;32.50;;;7.10;99.90;;;;;;5090243;28;20050;-71
2023/04/18 04:20:04;;;;;;;48.97;46.15;;;7.10;99.90;;;;;;5086274;28;20039;-70
2023/04/18 04:22:30;;;;;;;32.95;30.50;;;7.10;99.90;;;;;;5089860;28;20384;-71
2023/04/18 04:24:56;;;;;;;34.63;32.35;;;7.10;99.90;;;;;;5105484;28;20088;-70
2023/04/18 04:27:23;;;;;;;40.60;38.10;;;7.10;99.90;;;;;;5091160;27;20084;-70
2023/04/18 04:29:51;;;;;;;40.92;38.55;;;7.20;99.90;;;;;;5084978;28;20052;-71
2023/04/18 04:32:17;;;;;;;41.42;39.25;;;7.20;99.90;;;;;;5090729;28;20039;-70
2023/04/18 04:34:45;;;;;;;32.10;29.58;;;7.30;99.90;;;;;;5091332;28;20054;-71
2023/04/18 04:37:12;;;;;;;31.70;29.40;;;7.30;99.90;;;;;;5089316;27;20122;-70
2023/04/18 04:39:38;;;;;;;32.72;30.70;;;7.30;99.90;;;;;;5121444;27;20346;-70
2023/04/18 04:42:04;;;;;;;38.97;36.60;;;7.30;99.90;;;;;;5085990;28;20040;-71
2023/04/18 04:44:30;;;;;;;37.55;35.33;;;7.30;99.90;;;;;;5088878;28;20559;-70
2023/04/18 04:46:55;;;;;;;32.22;30.02;;;7.30;99.90;;;;;;5090351;28;20399;-71
2023/04/18 04:49:21;;;;;;;32.20;30.00;;;7.30;99.90;;;;;;5088647;28;20043;-71
2023/04/18 04:51:47;;;;;;;35.13;33.17;;;7.40;99.90;;;;;;5088995;28;20472;-71
2023/04/18 04:54:12;;;;;;;34.13;31.63;;;7.40;99.90;;;;;;5090915;27;20376;-70
2023/04/18 04:56:38;;;;;;;35.30;32.90;;;7.40;99.90;;;;;;5069529;28;20066;-70
2023/04/18 04:59:03;;;;;;;32.38;30.17;;;7.40;99.90;;;;;;5069218;28;20039;-70
2023/04/18 05:01:29;;;;;;;40.05;37.55;;;7.50;99.90;;;;;;5089606;28;20043;-70
2023/04/18 05:03:55;;;;;;;36.05;33.65;;;7.40;99.90;;;;;;5087972;28;20042;-70
2023/04/18 05:06:21;;;;;;;34.50;32.25;;;7.40;99.90;;;;;;5088940;28;20047;-70
2023/04/18 05:08:48;;;;;;;38.28;35.78;;;7.50;99.90;;;;;;5123488;27;20050;-71
2023/04/18 05:11:14;;;;;;;33.88;31.48;;;7.50;99.90;;;;;;5088339;28;20391;-71
2023/04/18 05:13:40;;;;;;;41.63;39.25;;;7.50;99.90;;;;;;5088034;28;20122;-70
2023/04/18 05:16:06;;;;;;;32.10;29.80;;;7.50;99.90;;;;;;5072207;28;20135;-70
2023/04/18 05:18:32;;;;;;;33.42;31.27;;;7.50;99.90;;;;;;5083386;28;20126;-70
2023/04/18 05:20:58;;;;;;;33.08;30.40;;;7.60;99.90;;;;;;5070467;28;20050;-71
2023/04/18 05:23:24;;;;;;;36.38;34.15;;;7.50;99.90;;;;;;5086647;28;20046;-70
2023/04/18 05:25:49;;;;;;;33.53;31.10;;;7.60;99.90;;;;;;5087863;28;20040;-70
2023/04/18 05:28:15;;;;;;;32.55;30.15;;;7.60;99.90;;;;;;5083356;28;20043;-71
2023/04/18 05:30:41;;;;;;;39.17;36.45;;;7.60;99.90;;;;;;5069968;28;20360;-70
2023/04/18 05:33:07;;;;;;;33.13;30.77;;;7.60;99.90;;;;;;5069358;28;20147;-70
2023/04/18 05:35:32;;;;;;;63.40;60.25;;;7.70;99.90;;;;;;5090398;28;20039;-70
2023/04/18 05:37:58;;;;;;;33.88;31.42;;;7.70;99.90;;;;;;5068902;28;20441;-71
2023/04/18 05:40:26;;;;;;;34.08;31.63;;;7.70;99.90;;;;;;5088720;28;20043;-70
2023/04/18 05:42:51;;;;;;;31.25;28.98;;;7.70;99.90;;;;;;5071596;28;20038;-70
2023/04/18 05:45:17;;;;;;;46.17;43.60;;;7.70;99.90;;;;;;5085032;28;20048;-70
2023/04/18 05:47:43;;;;;;;33.78;31.27;;;7.70;99.90;;;;;;5105137;28;20448;-70
2023/04/18 05:50:09;;;;;;;39.95;37.63;;;7.80;99.90;;;;;;5087043;27;20047;-71
2023/04/18 05:52:37;;;;;;;32.08;29.88;;;7.80;99.90;;;;;;5074983;27;20034;-70
2023/04/18 05:55:04;;;;;;;33.22;30.50;;;7.90;99.90;;;;;;5073511;27;20043;-70
2023/04/18 05:57:30;;;;;;;33.08;30.65;;;8.00;99.90;;;;;;5112682;27;20127;-70
2023/04/18 05:59:56;;;;;;;41.78;38.92;;;8.10;99.90;;;;;;5081211;28;20502;-71
2023/04/18 06:02:21;;;;;;;33.40;30.90;;;8.10;99.90;;;;;;5068001;28;20525;-70
2023/04/18 06:04:47;;;;;;;45.25;42.70;;;8.20;99.90;;;;;;5085526;28;20039;-70
2023/04/18 06:07:13;;;;;;;36.35;33.85;;;8.20;99.90;;;;;;5088250;28;20372;-71
2023/04/18 06:09:39;;;;;;;37.95;35.25;;;8.30;99.90;;;;;;5070547;28;20032;-70
2023/04/18 06:12:05;;;;;;;40.53;37.92;;;8.40;99.90;;;;;;5088410;28;20039;-70
2023/04/18 06:14:30;;;;;;;38.15;35.28;;;8.50;99.90;;;;;;5090028;28;20062;-70
2023/04/18 06:16:56;;;;;;;37.33;34.60;;;8.80;99.90;;;;;;5070765;28;20032;-70
2023/04/18 06:19:22;;;;;;;42.20;39.53;;;9.10;99.90;;;;;;5087375;28;20075;-70
2023/04/18 06:21:48;;;;;;;38.97;36.25;;;9.60;99.90;;;;;;5073433;28;20094;-70
2023/04/18 06:24:14;;;;;;;38.25;35.78;;;9.80;99.90;;;;;;5090299;28;20032;-70
2023/04/18 06:26:39;;;;;;;56.97;53.80;;;9.90;99.90;;;;;;5093839;28;20510;-70
2023/04/18 06:29:05;;;;;;;61.15;57.95;;;10.10;99.90;;;;;;5091218;28;20052;-70
2023/04/18 06:31:31;;;;;;;55.50;52.20;;;9.90;99.90;;;;;;5106787;28;20457;-70
2023/04/18 06:33:56;;;;;;;51.25;48.22;;;9.60;99.90;;;;;;5075611;28;20032;-70
2023/04/18 06:36:22;;;;;;;67.00;63.78;;;9.50;99.90;;;;;;5090570;28;20422;-70
2023/04/18 06:38:48;;;;;;;56.67;52.97;;;9.50;99.90;;;;;;5089915;28;20366;-70
2023/04/18 06:41:14;;;;;;;37.08;34.97;;;9.70;99.90;;;;;;5093050;28;20116;-70
2023/04/18 06:43:40;;;;;;;31.83;29.52;;;9.70;99.90;;;;;;5108462;28;20039;-70
2023/04/18 06:46:06;;;;;;;29.83;27.70;;;9.80;99.90;;;;;;5078172;27;20491;-70
2023/04/18 06:48:31;;;;;;;28.77;26.77;;;10.10;99.90;;;;;;5075201;28;20100;-70
2023/04/18 06:50:57;;;;;;;29.13;27.40;;;10.20;99.90;;;;;;5091447;28;20031;-70
2023/04/18 06:53:23;;;;;;;31.63;29.15;;;10.10;99.90;;;;;;5073206;28;20380;-70
2023/04/18 06:55:49;;;;;;;41.78;39.60;;;9.90;99.90;;;;;;5072531;28;20040;-70
2023/04/18 06:58:15;;;;;;;47.70;45.08;;;9.70;99.90;;;;;;5093243;28;20107;-70
2023/04/18 07:00:42;;;;;;;48.95;45.95;;;9.80;99.90;;;;;;5071654;28;20052;-70
2023/04/18 07:03:11;;;;;;;47.33;44.42;;;10.30;99.90;;;;;;5126568;27;20481;-70
2023/04/18 07:05:38;;;;;;;38.55;36.13;;;10.30;99.90;;;;;;5090695;28;20043;-70
2023/04/18 07:08:04;;;;;;;40.78;38.17;;;10.00;99.90;;;;;;5122682;27;20107;-70
2023/04/18 07:10:29;;;;;;;30.45;28.40;;;9.90;99.90;;;;;;5091301;28;20066;-70
2023/04/18 07:12:55;;;;;;;47.00;44.20;;;9.80;99.90;;;;;;5090866;28;20035;-70
2023/04/18 07:15:21;;;;;;;32.17;29.92;;;9.60;99.90;;;;;;5089456;28;20143;-70
2023/04/18 07:17:47;;;;;;;32.47;30.20;;;9.60;99.90;;;;;;5106593;28;20137;-70
2023/04/18 07:20:13;;;;;;;30.85;28.65;;;9.60;99.90;;;;;;5091605;28;20044;-70
2023/04/18 07:22:39;;;;;;;45.53;42.85;;;9.70;99.90;;;;;;5071920;28;20038;-70
2023/04/18 07:25:05;;;;;;;34.38;31.90;;;9.70;99.90;;;;;;5088811;28;20079;-70
2023/04/18 07:27:34;;;;;;;41.45;38.63;;;9.70;99.90;;;;;;5091092;28;20126;-70
2023/04/18 07:30:00;;;;;;;34.83;32.63;;;9.80;99.90;;;;;;5073899;28;20126;-70
2023/04/18 07:32:25;;;;;;;33.67;31.65;;;9.80;99.90;;;;;;5074438;28;20142;-70
2023/04/18 07:34:51;;;;;;;45.92;43.17;;;9.90;99.90;;;;;;5090573;28;20027;-70
2023/04/18 07:37:17;;;;;;;54.53;51.40;;;9.90;99.90;;;;;;5075070;28;20035;-70
2023/04/18 07:39:43;;;;;;;47.40;44.50;;;9.90;99.90;;;;;;5089521;28;20039;-70
2023/04/18 07:42:10;;;;;;;30.52;28.25;;;10.10;99.90;;;;;;5090637;28;20490;-70
2023/04/18 07:44:35;;;;;;;32.85;30.85;;;10.10;99.90;;;;;;5091473;28;20566;-70
2023/04/18 07:47:01;;;;;;;45.97;43.10;;;10.30;99.90;;;;;;5091415;27;20154;-70
2023/04/18 07:49:27;;;;;;;50.65;48.03;;;10.30;99.90;;;;;;5073874;28;20079;-70
2023/04/18 07:51:52;;;;;;;34.38;32.17;;;10.10;99.90;;;;;;5088078;28;20130;-70
2023/04/18 07:54:18;;;;;;;35.15;32.95;;;10.10;99.90;;;;;;5108497;27;20042;-70
2023/04/18 07:56:44;;;;;;;50.20;47.42;;;10.00;99.90;;;;;;5085725;28;20092;-70
2023/04/18 07:59:10;;;;;;;43.50;40.83;;;10.00;99.90;;;;;;5089320;28;20040;-70
2023/04/18 08:01:35;;;;;;;49.92;46.83;;;10.10;99.90;;;;;;5075000;28;20548;-70
2023/04/18 08:04:01;;;;;;;44.80;42.17;;;10.10;99.90;;;;;;5088751;28;20035;-70
2023/04/18 08:06:27;;;;;;;45.63;42.63;;;10.20;99.90;;;;;;5088802;27;20527;-70
2023/04/18 08:08:53;;;;;;;38.58;36.38;;;10.20;99.90;;;;;;5089148;28;20035;-70
2023/04/18 08:11:19;;;;;;;42.95;40.35;;;10.30;99.90;;;;;;5088520;28;20040;-70
2023/04/18 08:13:44;;;;;;;28.75;26.55;;;10.40;99.90;;;;;;5086803;28;20040;-70
2023/04/18 08:16:10;;;;;;;41.53;38.88;;;10.40;99.90;;;;;;5101748;28;20181;-70
2023/04/18 08:18:35;;;;;;;39.85;37.55;;;10.40;99.90;;;;;;5090720;28;20035;-70
2023/04/18 08:21:01;;;;;;;49.20;45.90;;;10.30;99.90;;;;;;5086565;28;20040;-70
2023/04/18 08:23:27;;;;;;;33.65;31.35;;;10.40;99.90;;;;;;5089621;28;20131;-70
2023/04/18 08:25:52;;;;;;;32.72;30.20;;;10.40;99.90;;;;;;5089465;28;20039;-70
2023/04/18 08:28:18;;;;;;;45.88;43.08;;;10.50;99.90;;;;;;5085161;28;20051;-70
2023/04/18 08:30:47;;;;;;;37.40;34.97;;;10.50;99.90;;;;;;5090654;27;20140;-70
2023/04/18 08:33:14;;;;;;;33.05;31.10;;;10.60;99.90;;;;;;5073292;28;20179;-70
2023/04/18 08:35:39;;;;;;;27.08;25.00;;;10.70;99.20;;;;;;5072879;28;20042;-70
2023/04/18 08:38:05;;;;;;;28.20;26.35;;;10.80;99.70;;;;;;5089318;28;20713;-70
2023/04/18 08:40:31;;;;;;;35.95;33.72;;;11.00;98.20;;;;;;5090380;28;20502;-70
2023/04/18 08:42:58;;;;;;;30.17;28.05;;;11.40;98.30;;;;;;5086631;28;20118;-70
2023/04/18 08:45:23;;;;;;;31.92;29.25;;;11.70;97.30;;;;;;5088568;28;20457;-70
2023/04/18 08:47:50;;;;;;;30.38;28.23;;;12.00;96.90;;;;;;5088546;28;20411;-70
2023/04/18 08:50:16;;;;;;;24.25;22.13;;;11.90;96.70;;;;;;5090303;28;20050;-70
2023/04/18 08:52:47;;;;;;;32.22;30.15;;;11.80;95.90;;;;;;5107872;28;20040;-70
2023/04/18 08:55:13;;;;;;;24.08;22.13;;;11.90;96.20;;;;;;5090283;28;20031;-70
2023/04/18 08:57:38;;;;;;;23.75;21.70;;;12.30;95.30;;;;;;5086450;28;20614;-70
2023/04/18 09:00:10;;;;;;;22.98;21.17;;;12.60;94.70;;;;;;5086419;28;20575;-70
2023/04/18 09:02:43;;;;;;;29.52;27.23;;;12.90;94.50;;;;;;5084691;28;20399;-70
2023/04/18 09:05:09;;;;;;;23.90;21.90;;;13.20;95.70;;;;;;5087882;28;20361;-71
2023/04/18 09:07:35;;;;;;;20.98;19.17;;;13.60;94.70;;;;;;5073008;28;20120;-70
2023/04/18 09:10:00;;;;;;;23.60;21.48;;;13.70;92.80;;;;;;5074509;28;20044;-70
2023/04/18 09:12:28;;;;;;;23.55;21.65;;;13.70;91.80;;;;;;5074161;27;20045;-70
2023/04/18 09:15:15;;;;;;;23.35;21.35;;;13.70;92.40;;;;;;5089644;28;20432;-70
2023/04/18 09:17:48;;;;;;;21.55;19.80;;;13.80;92.20;;;;;;5088069;27;20407;-70
2023/04/18 09:20:39;;;;;;;24.67;22.42;;;13.90;91.40;;;;;;5089166;27;20051;-70
2023/04/18 09:23:20;;;;;;;21.67;19.88;;;13.80;92.10;;;;;;5103101;28;20046;-70
2023/04/18 09:25:47;;;;;;;22.45;20.63;;;14.00;91.10;;;;;;5087177;28;20044;-70
2023/04/18 09:28:28;;;;;;;23.00;20.95;;;14.00;91.20;;;;;;5085127;28;20055;-70
2023/04/18 09:31:11;;;;;;;23.58;21.35;;;14.00;91.10;;;;;;5086199;28;20114;-70
2023/04/18 09:33:41;;;;;;;22.73;20.75;;;13.90;91.00;;;;;;5088244;28;20044;-70
2023/04/18 09:36:30;;;;;;;22.63;20.75;;;13.90;91.20;;;;;;5089571;28;20054;-70
2023/04/18 09:38:55;;;;;;;18.73;17.15;;;13.90;90.90;;;;;;5070783;28;20088;-70
2023/04/18 09:41:22;;;;;;;21.77;19.88;;;13.90;91.00;;;;;;5088524;28;20043;-70
2023/04/18 09:43:47;;;;;;;28.75;26.40;;;13.90;90.60;;;;;;5069880;28;20039;-70
2023/04/18 09:46:14;;;;;;;23.75;22.02;;;13.80;89.10;;;;;;5121022;27;20058;-70
2023/04/18 09:48:40;;;;;;;21.70;19.90;;;13.70;90.60;;;;;;5088288;28;20119;-70
2023/04/18 09:51:08;;;;;;;22.55;20.75;;;13.60;90.80;;;;;;5087835;28;20047;-70
2023/04/18 09:53:38;;;;;;;24.63;22.55;;;13.50;90.10;;;;;;5106307;27;20058;-70
2023/04/18 09:56:06;;;;;;;22.85;21.15;;;13.40;89.50;;;;;;5070379;28;20051;-70
2023/04/18 09:58:33;;;;;;;23.42;21.52;;;13.30;90.10;;;;;;5069015;28;20172;-70
2023/04/18 10:00:59;;;;;;;22.10;20.40;;;13.30;90.90;;;;;;5088662;28;20040;-70
2023/04/18 10:03:33;;;;;;;24.48;22.70;;;13.40;90.50;;;;;;5085713;28;20127;-70
2023/04/18 10:05:58;;;;;;;23.52;21.75;;;13.40;90.10;;;;;;5104943;27;20044;-70
2023/04/18 10:08:26;;;;;;;23.38;21.58;;;13.40;90.20;;;;;;5069003;28;20486;-70
2023/04/18 10:10:54;;;;;;;21.65;20.02;;;13.30;90.40;;;;;;5082783;28;20093;-70
2023/04/18 10:13:20;;;;;;;28.58;26.73;;;13.30;91.10;;;;;;5105919;28;20122;-70
2023/04/18 10:15:47;;;;;;;23.42;21.42;;;13.40;90.30;;;;;;5085563;28;20096;-70
2023/04/18 10:18:15;;;;;;;20.73;19.08;;;13.40;90.60;;;;;;5085935;28;20039;-70
2023/04/18 10:20:41;;;;;;;22.40;20.50;;;13.40;90.90;;;;;;5084595;28;20118;-70
2023/04/18 10:23:34;;;;;;;21.60;19.90;;;13.50;91.20;;;;;;5085482;28;20074;-70
2023/04/18 10:26:02;;;;;;;22.85;20.85;;;13.60;91.10;;;;;;5112816;27;20398;-70
2023/04/18 10:28:57;;;;;;;21.23;19.63;;;13.70;91.10;;;;;;5085070;28;20140;-70
2023/04/18 10:31:25;;;;;;;22.33;20.08;;;13.80;91.00;;;;;;5105811;28;20096;-70
2023/04/18 10:33:58;;;;;;;24.73;22.83;;;13.70;90.60;;;;;;5081968;28;20032;-70
2023/04/18 10:36:26;;;;;;;20.80;19.10;;;13.80;92.30;;;;;;5083859;28;20131;-70
2023/04/18 10:38:54;;;;;;;21.38;19.52;;;14.10;92.70;;;;;;5067482;28;20068;-71
2023/04/18 10:41:31;;;;;;;20.00;18.40;;;14.20;91.10;;;;;;5080567;28;20150;-71
2023/04/18 10:44:08;;;;;;;18.83;17.30;;;14.20;91.50;;;;;;5078758;28;20135;-70
2023/04/18 10:46:41;;;;;;;21.08;19.45;;;14.20;92.10;;;;;;5073403;28;20055;-70
2023/04/18 10:49:14;;;;;;;21.63;19.80;;;14.40;92.30;;;;;;5084429;28;20047;-70
2023/04/18 10:51:40;;;;;;;20.17;18.38;;;14.40;92.00;;;;;;5078565;28;20036;-69
2023/04/18 10:54:11;;;;;;;23.80;22.05;;;14.40;91.60;;;;;;5084182;28;20046;-70
2023/04/18 10:56:38;;;;;;;20.13;18.70;;;14.50;92.60;;;;;;5076526;28;20042;-69
2023/04/18 10:59:04;;;;;;;20.85;19.05;;;14.50;91.50;;;;;;5085829;28;20123;-70
2023/04/18 11:01:31;;;;;;;20.85;18.98;;;14.40;91.40;;;;;;5080734;28;20503;-70
2023/04/18 11:03:58;;;;;;;18.98;17.38;;;14.40;92.90;;;;;;5080460;28;20063;-69
2023/04/18 11:06:27;;;;;;;21.83;19.88;;;14.50;92.40;;;;;;5101777;27;20190;-70
2023/04/18 11:09:13;;;;;;;20.17;18.58;;;14.60;91.90;;;;;;5089049;27;20141;-71
2023/04/18 11:11:40;;;;;;;20.77;19.08;;;14.60;92.20;;;;;;5092917;28;20079;-70
2023/04/18 11:14:06;;;;;;;23.50;21.42;;;14.50;91.90;;;;;;5090060;28;20074;-69
2023/04/18 11:16:33;;;;;;;22.23;20.52;;;14.60;93.30;;;;;;5089985;28;20039;-70
2023/04/18 11:18:59;;;;;;;21.92;20.23;;;14.80;92.30;;;;;;5102009;27;20039;-70
2023/04/18 11:21:28;;;;;;;21.77;20.17;;;14.70;92.70;;;;;;5091514;28;20039;-70
2023/04/18 11:23:57;;;;;;;23.33;21.42;;;14.80;92.30;;;;;;5090327;28;20044;-70
2023/04/18 11:26:27;;;;;;;20.98;19.27;;;14.80;92.30;;;;;;5121609;27;20062;-70
2023/04/18 11:28:57;;;;;;;22.00;20.40;;;14.80;92.60;;;;;;5090614;27;20092;-70
2023/04/18 11:31:23;;;;;;;24.50;22.75;;;14.80;92.60;;;;;;5103667;28;20036;-70
2023/04/18 11:33:50;;;;;;;25.83;24.10;;;14.80;92.80;;;;;;5088877;28;20118;-69
2023/04/18 11:36:15;;;;;;;24.50;22.92;;;14.80;92.00;;;;;;5125736;27;20077;-69
2023/04/18 11:38:41;;;;;;;25.85;23.88;;;14.80;92.30;;;;;;5089188;28;20043;-70
2023/04/18 11:41:16;;;;;;;23.13;21.52;;;14.90;92.60;;;;;;5092187;27;20653;-70
2023/04/18 11:43:45;;;;;;;;;;;15.00;92.70;;;;;;5090097;28;20460;-70
2023/04/18 11:46:12;;;;;;;22.70;20.90;;;15.00;92.70;;;;;;5099999;28;19923;-69
2023/04/18 11:48:39;;;;;;;26.65;24.73;;;15.00;92.70;;;;;;5089645;28;20048;-70
2023/04/18 11:51:33;;;;;;;28.17;26.38;;;15.00;92.70;;;;;;5109967;27;20043;-69
2023/04/18 11:53:58;;;;;;;25.35;23.65;;;15.00;91.90;;;;;;5073721;28;20434;-70
2023/04/18 11:56:24;;;;;;;23.83;22.00;;;14.90;92.50;;;;;;5105545;28;20165;-69
2023/04/18 11:58:50;;;;;;;25.45;23.55;;;14.90;92.90;;;;;;5092788;27;20035;-69
2023/04/18 12:01:20;;;;;;;25.35;23.88;;;15.00;93.70;;;;;;5089215;28;20482;-69
2023/04/18 12:04:00;;;;;;;23.10;21.40;;;15.10;92.10;;;;;;5084270;28;20084;-69
2023/04/18 12:06:28;;;;;;;26.58;24.83;;;15.10;93.10;;;;;;5106742;28;20150;-69
2023/04/18 12:09:00;;;;;;;30.88;29.02;;;15.10;93.00;;;;;;5089350;28;20051;-69
2023/04/18 12:11:25;;;;;;;28.73;26.83;;;15.20;91.60;;;;;;5118216;27;20517;-70
2023/04/18 12:13:55;;;;;;;25.48;23.75;;;15.10;92.20;;;;;;5088630;28;20031;-69
2023/04/18 12:16:26;;;;;;;30.85;28.98;;;15.10;92.80;;;;;;5089596;28;20043;-70
2023/04/18 12:18:59;;;;;;;25.33;23.63;;;15.20;92.40;;;;;;5090366;28;20086;-69
2023/04/18 12:21:28;;;;;;;27.80;26.20;;;15.40;94.10;;;;;;5101127;28;20410;-69
2023/04/18 12:23:54;;;;;;;19.77;18.48;;;15.70;93.60;;;;;;5089275;28;20063;-69
2023/04/18 12:26:22;;;;;;;20.20;18.70;;;15.90;90.80;;;;;;5089744;28;20051;-69
2023/04/18 12:28:52;;;;;;;21.02;19.63;;;15.80;91.40;;;;;;5120807;27;20411;-69
2023/04/18 12:31:20;;;;;;;18.15;16.88;;;15.70;91.80;;;;;;5086278;28;20043;-70
2023/04/18 12:33:45;;;;;;;20.30;19.00;;;15.80;91.20;;;;;;5103162;28;20047;-69